sensor_id;sensor_type;location;lat;lon;timestamp;P1;durP1;ratioP1;P2;durP2;ratioP2
28802;SDS011;15949;55.656;37.422;2023-11-19T18:02:57;47.42;;;25.88;;
28802;SDS011;15949;55.656;37.422;2023-11-19T18:08:03;47.95;;;25.67;;
28802;SDS011;15949;55.656;37.422;2023-11-19T18:13:10;49.53;;;26.52;;
28802;SDS011;15949;55.656;37.422;2023-11-19T18:18:16;48.35;;;25.75;;
28802;SDS011;15949;55.656;37.422;2023-11-19T18:23:22;50.72;;;27.63;;
28802;SDS011;15949;55.656;37.422;2023-11-19T18:28:30;52.22;;;28.42;;
28802;SDS011;15949;55.656;37.422;2023-11-19T18:33:36;65.82;;;32.75;;
28802;SDS011;15949;55.656;37.422;2023-11-19T18:38:42;62.95;;;32.80;;
28802;SDS011;15949;55.656;37.422;2023-11-19T18:43:48;56.78;;;30.27;;
28802;SDS011;15949;55.656;37.422;2023-11-19T18:48:53;58.45;;;31.88;;
28802;SDS011;15949;55.656;37.422;2023-11-19T18:54:00;54.83;;;28.23;;
28802;SDS011;15949;55.656;37.422;2023-11-19T18:59:08;54.47;;;28.67;;
28802;SDS011;15949;55.656;37.422;2023-11-19T19:04:17;55.22;;;28.20;;
28802;SDS011;15949;55.656;37.422;2023-11-19T19:09:22;59.92;;;29.23;;
28802;SDS011;15949;55.656;37.422;2023-11-19T19:14:28;54.05;;;28.13;;
28802;SDS011;15949;55.656;37.422;2023-11-19T19:19:34;54.67;;;28.40;;
28802;SDS011;15949;55.656;37.422;2023-11-19T19:24:41;58.17;;;29.08;;
28802;SDS011;15949;55.656;37.422;2023-11-19T19:29:47;52.30;;;28.50;;
28802;SDS011;15949;55.656;37.422;2023-11-19T19:34:53;59.95;;;29.67;;
28802;SDS011;15949;55.656;37.422;2023-11-19T19:40:02;58.63;;;29.90;;
28802;SDS011;15949;55.656;37.422;2023-11-19T19:45:09;59.42;;;29.60;;
28802;SDS011;15949;55.656;37.422;2023-11-19T19:50:15;58.58;;;30.40;;
28802;SDS011;15949;55.656;37.422;2023-11-19T19:55:21;57.88;;;29.33;;
28802;SDS011;15949;55.656;37.422;2023-11-19T20:00:27;62.58;;;31.25;;
28802;SDS011;15949;55.656;37.422;2023-11-19T20:05:35;56.55;;;30.33;;
28802;SDS011;15949;55.656;37.422;2023-11-19T20:10:41;64.80;;;30.30;;
28802;SDS011;15949;55.656;37.422;2023-11-19T20:15:47;58.97;;;29.88;;
28802;SDS011;15949;55.656;37.422;2023-11-19T20:20:55;55.13;;;29.70;;
28802;SDS011;15949;55.656;37.422;2023-11-19T20:26:01;55.33;;;29.52;;
28802;SDS011;15949;55.656;37.422;2023-11-19T20:31:11;55.58;;;29.67;;
28802;SDS011;15949;55.656;37.422;2023-11-19T20:36:17;55.40;;;29.45;;
28802;SDS011;15949;55.656;37.422;2023-11-19T20:41:36;57.30;;;30.25;;
28802;SDS011;15949;55.656;37.422;2023-11-19T20:46:56;58.10;;;30.40;;
28802;SDS011;15949;55.656;37.422;2023-11-19T20:52:02;58.17;;;30.27;;
28802;SDS011;15949;55.656;37.422;2023-11-19T20:57:08;57.30;;;29.02;;
28802;SDS011;15949;55.656;37.422;2023-11-19T21:02:14;56.47;;;29.65;;
28802;SDS011;15949;55.656;37.422;2023-11-19T21:07:21;60.72;;;30.15;;
28802;SDS011;15949;55.656;37.422;2023-11-19T21:12:27;58.33;;;30.35;;
28802;SDS011;15949;55.656;37.422;2023-11-19T21:17:34;62.42;;;31.83;;
28802;SDS011;15949;55.656;37.422;2023-11-19T21:22:40;63.45;;;30.63;;
28802;SDS011;15949;55.656;37.422;2023-11-19T21:27:49;59.65;;;30.65;;
28802;SDS011;15949;55.656;37.422;2023-11-19T21:38:01;70.32;;;31.02;;
28802;SDS011;15949;55.656;37.422;2023-11-19T21:43:06;67.32;;;30.98;;
28802;SDS011;15949;55.656;37.422;2023-11-19T21:48:12;77.65;;;34.83;;
28802;SDS011;15949;55.656;37.422;2023-11-19T21:53:18;100.80;;;39.03;;
28802;SDS011;15949;55.656;37.422;2023-11-19T21:58:24;77.97;;;33.75;;
28802;SDS011;15949;55.656;37.422;2023-11-19T22:03:31;71.65;;;31.33;;
28802;SDS011;15949;55.656;37.422;2023-11-19T22:08:37;64.03;;;30.30;;
28802;SDS011;15949;55.656;37.422;2023-11-19T22:13:52;68.55;;;31.17;;
28802;SDS011;15949;55.656;37.422;2023-11-19T22:18:59;56.05;;;29.67;;
28802;SDS011;15949;55.656;37.422;2023-11-19T22:24:05;64.85;;;30.15;;
28802;SDS011;15949;55.656;37.422;2023-11-19T22:29:12;73.20;;;31.02;;
28802;SDS011;15949;55.656;37.422;2023-11-19T22:34:18;54.15;;;25.58;;
28802;SDS011;15949;55.656;37.422;2023-11-19T22:39:24;55.88;;;24.95;;
28802;SDS011;15949;55.656;37.422;2023-11-19T22:44:30;53.95;;;25.98;;
28802;SDS011;15949;55.656;37.422;2023-11-19T22:49:36;50.67;;;24.67;;
28802;SDS011;15949;55.656;37.422;2023-11-19T22:54:41;44.10;;;22.27;;
28802;SDS011;15949;55.656;37.422;2023-11-19T22:59:48;44.67;;;23.13;;
28802;SDS011;15949;55.656;37.422;2023-11-19T23:04:53;54.03;;;23.83;;
28802;SDS011;15949;55.656;37.422;2023-11-19T23:09:59;42.13;;;21.58;;
28802;SDS011;15949;55.656;37.422;2023-11-19T23:15:05;42.78;;;21.48;;
28802;SDS011;15949;55.656;37.422;2023-11-19T23:20:14;39.88;;;21.00;;
28802;SDS011;15949;55.656;37.422;2023-11-19T23:25:20;43.50;;;22.40;;
28802;SDS011;15949;55.656;37.422;2023-11-19T23:30:26;44.38;;;22.42;;
28802;SDS011;15949;55.656;37.422;2023-11-19T23:35:32;39.28;;;21.48;;
28802;SDS011;15949;55.656;37.422;2023-11-19T23:40:39;41.33;;;21.95;;
28802;SDS011;15949;55.656;37.422;2023-11-19T23:45:45;39.33;;;21.58;;
28802;SDS011;15949;55.656;37.422;2023-11-19T23:50:51;51.80;;;21.70;;
28802;SDS011;15949;55.656;37.422;2023-11-19T23:55:58;43.97;;;23.05;;
